createdAt,value
2022-11-03T00:03:35.484Z,40.78
2022-11-03T00:08:29.887Z,38.85
2022-11-03T00:13:23.693Z,41.75
2022-11-03T00:18:16.782Z,42.17
2022-11-03T00:23:10.848Z,42.60
2022-11-03T00:28:05.363Z,45.53
2022-11-03T00:32:59.948Z,44.92
2022-11-03T00:37:53.881Z,46.60
2022-11-03T00:42:47.810Z,44.42
2022-11-03T00:48:01.969Z,43.78
2022-11-03T00:52:55.962Z,44.35
2022-11-03T00:57:48.763Z,46.00
2022-11-03T01:07:36.352Z,44.40
2022-11-03T01:12:30.482Z,45.92
2022-11-03T01:17:43.877Z,45.22
2022-11-03T01:22:39.358Z,45.00
2022-11-03T01:27:36.833Z,45.08
2022-11-03T01:32:30.387Z,45.42
2022-11-03T01:37:26.696Z,45.58
2022-11-03T01:42:19.585Z,45.35
2022-11-03T01:47:28.481Z,48.42
2022-11-03T01:52:31.486Z,47.50
2022-11-03T01:57:29.344Z,45.90
2022-11-03T02:02:22.858Z,48.55
2022-11-03T02:07:24.103Z,46.35
2022-11-03T02:12:18.526Z,46.15
2022-11-03T02:17:14.489Z,46.05
2022-11-03T02:22:49.494Z,45.58
2022-11-03T02:27:43.199Z,49.60
2022-11-03T02:32:59.076Z,49.30
2022-11-03T02:37:55.754Z,50.88
2022-11-03T02:42:53.795Z,52.03
2022-11-03T02:47:49.301Z,57.28
2022-11-03T02:52:43.362Z,60.42
2022-11-03T02:57:45.117Z,57.45
2022-11-03T03:03:09.896Z,59.40
2022-11-03T03:08:06.945Z,58.35
2022-11-03T03:13:03.273Z,58.58
2022-11-03T03:18:17.479Z,58.38
2022-11-03T03:23:20.485Z,59.63
2022-11-03T03:28:22.432Z,58.63
2022-11-03T03:33:16.375Z,61.50
2022-11-03T03:38:21.099Z,60.00
2022-11-03T03:43:15.783Z,57.00
2022-11-03T03:48:10.391Z,59.95
2022-11-03T03:53:06.321Z,60.65
2022-11-03T03:58:00.642Z,58.30
2022-11-03T04:02:54.399Z,60.80
2022-11-03T04:13:03.232Z,60.40
2022-11-03T04:18:14.660Z,57.65
2022-11-03T04:23:08.712Z,63.53
2022-11-03T04:28:03.662Z,59.08
2022-11-03T04:32:58.181Z,61.08
2022-11-03T04:38:00.161Z,61.90
2022-11-03T04:42:53.485Z,63.88
2022-11-03T04:47:46.555Z,62.20
2022-11-03T04:52:40.075Z,60.80
2022-11-03T05:02:34.570Z,61.75
2022-11-03T05:07:35.753Z,60.17
2022-11-03T05:12:32.072Z,61.53
2022-11-03T05:17:27.372Z,60.33
2022-11-03T05:22:23.324Z,64.55
2022-11-03T05:27:21.865Z,65.97
2022-11-03T05:32:25.172Z,64.85
2022-11-03T05:37:29.535Z,65.10
2022-11-03T05:42:37.614Z,63.20
2022-11-03T05:47:38.434Z,59.13
2022-11-03T05:52:33.160Z,60.95
2022-11-03T05:57:31.445Z,59.05
2022-11-03T06:02:40.389Z,56.60
2022-11-03T06:07:35.948Z,55.22
2022-11-03T06:12:31.230Z,56.75
2022-11-03T06:17:25.698Z,59.25
2022-11-03T06:22:26.025Z,55.17
2022-11-03T06:27:32.002Z,54.45
2022-11-03T06:32:25.604Z,53.40
2022-11-03T06:37:48.462Z,51.97
2022-11-03T06:42:42.294Z,51.40
2022-11-03T06:47:36.426Z,51.60
2022-11-03T06:52:34.642Z,47.25
2022-11-03T06:57:30.494Z,47.03
2022-11-03T07:02:33.895Z,43.58
2022-11-03T07:07:28.547Z,42.40
2022-11-03T07:12:22.288Z,41.20
2022-11-03T07:17:17.830Z,40.05
2022-11-03T07:22:22.781Z,42.53
2022-11-03T07:27:32.967Z,42.92
2022-11-03T07:32:31.323Z,40.30
2022-11-03T07:37:27.301Z,40.80
2022-11-03T07:42:23.176Z,36.15
2022-11-03T07:47:26.225Z,34.88
2022-11-03T07:52:26.377Z,35.63
2022-11-03T07:57:24.130Z,31.88
2022-11-03T08:02:26.094Z,35.22
2022-11-03T08:07:20.408Z,35.72
2022-11-03T08:12:14.416Z,37.45
2022-11-03T08:22:01.573Z,37.17
2022-11-03T08:26:54.685Z,38.65
2022-11-03T08:31:48.839Z,38.70
2022-11-03T08:36:42.339Z,40.38
2022-11-03T08:41:36.966Z,40.55
2022-11-03T08:46:30.589Z,39.58
2022-11-03T08:51:24.997Z,39.38
2022-11-03T08:56:22.391Z,42.47
2022-11-03T09:01:15.947Z,41.63
2022-11-03T09:06:09.589Z,39.17
2022-11-03T09:11:03.353Z,45.42
2022-11-03T09:15:57.757Z,42.35
2022-11-03T09:20:50.896Z,42.45
2022-11-03T09:25:44.357Z,45.70
2022-11-03T09:30:38.756Z,46.08
2022-11-03T09:35:32.602Z,46.20
2022-11-03T09:40:26.182Z,46.58
2022-11-03T09:45:19.575Z,45.30
2022-11-03T09:50:15.596Z,38.85
2022-11-03T09:55:25.174Z,39.53
2022-11-03T10:00:23.259Z,40.45
2022-11-03T10:05:27.326Z,41.08
2022-11-03T10:10:21.320Z,40.15
2022-11-03T10:15:16.923Z,39.65
2022-11-03T10:20:14.120Z,39.30
2022-11-03T10:25:39.143Z,38.42
2022-11-03T10:30:45.369Z,36.53
2022-11-03T10:40:54.016Z,34.50
2022-11-03T10:45:46.866Z,38.53
2022-11-03T10:50:41.171Z,35.17
2022-11-03T10:55:35.469Z,35.03
2022-11-03T11:00:29.448Z,33.35
2022-11-03T11:05:28.162Z,34.42
2022-11-03T11:10:29.476Z,34.75
2022-11-03T11:15:36.767Z,33.83
2022-11-03T11:20:36.901Z,32.08
2022-11-03T11:26:07.216Z,30.40
2022-11-03T11:31:00.679Z,30.20
2022-11-03T11:35:58.802Z,30.48
2022-11-03T11:40:53.509Z,29.48
2022-11-03T11:46:24.070Z,26.38
2022-11-03T11:51:18.256Z,25.83
2022-11-03T11:56:13.213Z,28.00
2022-11-03T12:01:20.839Z,21.27
2022-11-03T12:06:13.999Z,23.27
2022-11-03T12:11:08.997Z,22.23
2022-11-03T12:16:02.089Z,24.52
2022-11-03T12:20:56.095Z,22.75
2022-11-03T12:25:49.247Z,23.58
2022-11-03T12:30:44.510Z,21.92
2022-11-03T12:35:38.569Z,21.98
2022-11-03T12:40:32.803Z,22.85
2022-11-03T12:45:27.014Z,23.02
2022-11-03T12:50:20.247Z,22.30
2022-11-03T12:55:14.628Z,23.92
2022-11-03T13:00:10.459Z,23.15
2022-11-03T13:05:06.080Z,23.30
2022-11-03T13:10:00.584Z,23.42
2022-11-03T13:14:54.015Z,22.08
2022-11-03T13:19:49.355Z,21.58
2022-11-03T13:24:44.831Z,21.85
2022-11-03T13:29:38.568Z,22.73
2022-11-03T13:34:32.563Z,21.67
2022-11-03T13:39:26.270Z,22.77
2022-11-03T13:44:20.766Z,23.30
2022-11-03T13:59:40.515Z,24.60
2022-11-03T14:04:41.197Z,26.25
2022-11-03T14:09:34.787Z,28.52
2022-11-03T14:14:28.764Z,27.77
2022-11-03T14:19:23.042Z,27.73
2022-11-03T14:24:19.383Z,29.95
2022-11-03T14:29:13.359Z,27.90
2022-11-03T14:34:06.491Z,30.45
2022-11-03T14:39:00.608Z,30.83
2022-11-03T14:43:54.920Z,31.30
2022-11-03T14:48:48.836Z,35.67
2022-11-03T14:53:42.286Z,32.65
2022-11-03T14:58:36.290Z,29.85
2022-11-03T15:03:30.310Z,33.35
2022-11-03T15:08:24.133Z,33.50
2022-11-03T15:13:17.651Z,34.53
2022-11-03T15:18:11.214Z,35.58
2022-11-03T15:28:21.825Z,51.42
2022-11-03T15:33:15.310Z,52.05
2022-11-03T15:38:09.834Z,46.63
2022-11-03T15:43:06.118Z,47.10
2022-11-03T15:48:00.385Z,52.50
2022-11-03T15:52:57.571Z,47.42
2022-11-03T15:57:50.886Z,39.00
2022-11-03T16:02:44.369Z,35.47
2022-11-03T16:07:37.911Z,33.67
2022-11-03T16:12:31.203Z,32.90
2022-11-03T16:17:25.739Z,31.52
2022-11-03T16:22:19.040Z,31.63
2022-11-03T16:27:13.202Z,31.33
2022-11-03T16:32:06.917Z,30.50
2022-11-03T16:37:01.572Z,33.67
2022-11-03T16:41:55.176Z,34.10
2022-11-03T16:46:48.933Z,35.70
2022-11-03T16:51:42.879Z,38.45
2022-11-03T16:56:37.110Z,38.90
2022-11-03T17:01:31.444Z,38.67
2022-11-03T17:06:25.735Z,40.35
2022-11-03T17:11:36.323Z,42.13
2022-11-03T17:16:29.291Z,44.13
2022-11-03T17:21:22.781Z,41.20
2022-11-03T17:26:16.738Z,39.00
2022-11-03T17:31:10.489Z,38.53
2022-11-03T17:36:04.872Z,37.30
2022-11-03T17:40:58.617Z,39.47
2022-11-03T17:45:51.651Z,38.30
2022-11-03T17:50:50.851Z,39.97
2022-11-03T17:55:47.172Z,40.15
2022-11-03T18:00:48.001Z,43.37
2022-11-03T18:05:41.130Z,44.65
2022-11-03T18:10:36.606Z,41.78
2022-11-03T18:15:30.798Z,41.10
2022-11-03T18:20:29.851Z,41.58
2022-11-03T18:25:22.944Z,43.05
2022-11-03T18:30:17.402Z,44.55
2022-11-03T18:35:17.156Z,43.30
2022-11-03T18:40:14.141Z,44.47
2022-11-03T18:45:17.290Z,43.67
2022-11-03T18:50:16.612Z,46.40
2022-11-03T18:55:12.992Z,45.65
2022-11-03T19:00:22.197Z,47.38
2022-11-03T19:05:17.219Z,45.20
2022-11-03T19:10:15.475Z,44.65
2022-11-03T19:15:18.595Z,46.03
2022-11-03T19:20:15.011Z,45.97
2022-11-03T19:25:10.802Z,46.83
2022-11-03T19:30:06.752Z,45.80
2022-11-03T19:35:02.932Z,43.58
2022-11-03T19:39:58.852Z,45.67
2022-11-03T19:44:53.790Z,46.17
2022-11-03T19:49:47.848Z,46.13
2022-11-03T19:54:46.605Z,45.20
2022-11-03T19:59:39.951Z,46.30
2022-11-03T20:04:34.216Z,45.88
2022-11-03T20:14:28.259Z,45.72
2022-11-03T20:19:28.597Z,44.33
2022-11-03T20:24:22.472Z,46.13
2022-11-03T20:29:16.220Z,46.03
2022-11-03T20:34:15.117Z,43.58
2022-11-03T20:39:12.265Z,45.80
2022-11-03T20:44:06.557Z,45.25
2022-11-03T20:49:00.444Z,45.00
2022-11-03T20:53:53.981Z,44.35
2022-11-03T20:58:47.869Z,46.67
2022-11-03T21:03:58.934Z,49.95
2022-11-03T21:08:52.871Z,49.17
2022-11-03T21:13:47.073Z,49.88
2022-11-03T21:18:59.720Z,52.47
2022-11-03T21:23:52.446Z,52.58
2022-11-03T21:28:46.435Z,59.38
2022-11-03T21:33:39.954Z,55.60
2022-11-03T21:38:33.592Z,57.72
2022-11-03T21:44:02.111Z,56.08
2022-11-03T21:49:14.043Z,56.50
2022-11-03T21:54:08.876Z,58.20
2022-11-03T21:59:03.069Z,55.83
2022-11-03T22:03:57.418Z,58.35
2022-11-03T22:08:55.092Z,57.13
2022-11-03T22:13:49.266Z,56.85
2022-11-03T22:18:43.488Z,59.15
2022-11-03T22:23:54.990Z,59.58
2022-11-03T22:29:11.621Z,57.50
2022-11-03T22:34:23.817Z,57.20
2022-11-03T22:39:35.702Z,60.88
2022-11-03T22:44:47.172Z,63.17
2022-11-03T22:49:42.205Z,67.82
2022-11-03T22:54:36.224Z,64.30
2022-11-03T22:59:30.781Z,68.38
2022-11-03T23:04:24.653Z,64.55
2022-11-03T23:09:18.596Z,61.80
2022-11-03T23:14:12.962Z,64.35
2022-11-03T23:19:24.928Z,66.22
2022-11-03T23:24:42.178Z,62.70
2022-11-03T23:29:38.975Z,64.18
2022-11-03T23:34:32.937Z,64.00
2022-11-03T23:39:26.525Z,64.10
2022-11-03T23:44:20.996Z,57.75
2022-11-03T23:49:15.135Z,58.28
2022-11-03T23:54:09.736Z,57.42
2022-11-03T23:59:03.450Z,58.47
